createdAt,value
2022-11-15T00:00:54.508Z,95.59
2022-11-15T00:03:23.877Z,95.37
2022-11-15T00:05:50.869Z,94.82
2022-11-15T00:08:17.531Z,95.02
2022-11-15T00:10:44.286Z,94.96
2022-11-15T00:13:14.374Z,95.22
2022-11-15T00:15:42.036Z,95.95
2022-11-15T00:18:14.079Z,96.08
2022-11-15T00:20:40.666Z,96.90
2022-11-15T00:23:07.534Z,96.59
2022-11-15T00:25:34.771Z,96.97
2022-11-15T00:28:01.883Z,96.46
2022-11-15T00:30:29.231Z,96.78
2022-11-15T00:32:56.103Z,96.69
2022-11-15T00:35:23.220Z,96.45
2022-11-15T00:37:49.928Z,96.67
2022-11-15T00:40:16.782Z,96.41
2022-11-15T00:42:43.364Z,96.52
2022-11-15T00:45:10.789Z,96.03
2022-11-15T00:47:37.530Z,96.93
2022-11-15T00:50:05.323Z,96.64
2022-11-15T00:52:31.888Z,96.14
2022-11-15T00:54:58.431Z,95.80
2022-11-15T00:57:24.948Z,95.87
2022-11-15T00:59:51.440Z,95.60
2022-11-15T01:02:18.128Z,95.64
2022-11-15T01:04:44.801Z,95.37
2022-11-15T01:07:11.399Z,95.96
2022-11-15T01:09:38.152Z,96.06
2022-11-15T01:12:05.304Z,96.27
2022-11-15T01:14:32.178Z,96.31
2022-11-15T01:16:58.861Z,96.49
2022-11-15T01:19:25.520Z,96.36
2022-11-15T01:21:52.705Z,96.18
2022-11-15T01:24:19.497Z,96.73
2022-11-15T01:26:46.139Z,96.57
2022-11-15T01:29:12.672Z,96.80
2022-11-15T01:31:39.219Z,96.16
2022-11-15T01:34:05.802Z,95.64
2022-11-15T01:36:32.342Z,96.39
2022-11-15T01:39:00.206Z,96.63
2022-11-15T01:41:30.146Z,96.20
2022-11-15T01:44:17.194Z,96.57
2022-11-15T01:46:48.366Z,96.79
2022-11-15T01:49:22.041Z,96.80
2022-11-15T01:51:48.630Z,96.90
2022-11-15T01:54:18.259Z,97.34
2022-11-15T01:56:52.359Z,96.52
2022-11-15T01:59:19.420Z,97.02
2022-11-15T02:01:46.260Z,96.95
2022-11-15T02:04:17.771Z,97.12
2022-11-15T02:06:45.301Z,96.52
2022-11-15T02:09:13.372Z,96.53
2022-11-15T02:11:40.206Z,96.00
2022-11-15T02:14:08.173Z,95.25
2022-11-15T02:16:51.147Z,95.71
2022-11-15T02:19:32.998Z,96.26
2022-11-15T02:22:11.620Z,96.33
2022-11-15T02:24:53.038Z,96.53
2022-11-15T02:27:48.727Z,96.41
2022-11-15T02:30:22.773Z,96.51
2022-11-15T02:33:15.428Z,96.66
2022-11-15T02:36:01.939Z,96.91
2022-11-15T02:39:07.089Z,96.48
2022-11-15T02:41:39.173Z,96.50
2022-11-15T02:44:18.589Z,96.91
2022-11-15T02:47:15.131Z,96.49
2022-11-15T02:49:53.602Z,96.43
2022-11-15T02:52:26.293Z,96.15
2022-11-15T02:54:58.168Z,95.97
2022-11-15T02:57:33.496Z,96.39
2022-11-15T03:00:11.835Z,96.35
2022-11-15T03:03:05.497Z,96.64
2022-11-15T03:05:40.940Z,96.80
2022-11-15T03:08:30.219Z,96.59
2022-11-15T03:11:15.047Z,97.38
2022-11-15T03:14:01.482Z,97.05
2022-11-15T03:16:33.044Z,96.40
2022-11-15T03:19:38.333Z,96.69
2022-11-15T03:22:10.361Z,96.18
2022-11-15T03:24:39.424Z,96.24
2022-11-15T03:27:08.532Z,96.43
2022-11-15T03:29:38.924Z,96.28
2022-11-15T03:32:13.156Z,96.29
2022-11-15T03:34:50.457Z,96.38
2022-11-15T03:37:18.561Z,95.75
2022-11-15T03:39:45.348Z,95.79
2022-11-15T03:42:18.140Z,95.09
2022-11-15T03:44:56.601Z,96.08
2022-11-15T03:47:58.616Z,96.14
2022-11-15T03:50:26.684Z,95.65
2022-11-15T03:52:55.944Z,95.38
2022-11-15T03:55:23.396Z,96.64
2022-11-15T03:57:54.032Z,96.74
2022-11-15T04:00:20.678Z,96.68
2022-11-15T04:02:47.339Z,96.70
2022-11-15T04:05:13.901Z,96.81
2022-11-15T04:07:40.577Z,96.60
2022-11-15T04:10:08.017Z,96.60
2022-11-15T04:12:36.970Z,96.32
2022-11-15T04:15:09.439Z,96.51
2022-11-15T04:17:40.426Z,97.01
2022-11-15T04:20:30.682Z,96.88
2022-11-15T04:23:17.622Z,96.82
2022-11-15T04:25:45.492Z,96.83
2022-11-15T04:28:12.539Z,97.14
2022-11-15T04:30:39.348Z,97.66
2022-11-15T04:33:06.136Z,97.15
2022-11-15T04:35:32.731Z,97.60
2022-11-15T04:37:59.681Z,97.28
2022-11-15T04:40:26.432Z,96.99
2022-11-15T04:42:53.121Z,97.47
2022-11-15T04:45:19.720Z,96.67
2022-11-15T04:47:47.280Z,96.41
2022-11-15T04:50:15.194Z,96.61
2022-11-15T04:52:51.104Z,97.07
2022-11-15T04:55:17.713Z,97.13
2022-11-15T04:57:44.364Z,96.92
2022-11-15T05:00:13.963Z,97.00
2022-11-15T05:02:58.934Z,96.99
2022-11-15T05:05:26.185Z,97.21
2022-11-15T05:07:52.741Z,96.85
2022-11-15T05:10:19.400Z,96.10
2022-11-15T05:12:47.907Z,96.39
2022-11-15T05:15:14.512Z,96.69
2022-11-15T05:17:41.021Z,96.65
2022-11-15T05:20:08.308Z,96.26
2022-11-15T05:22:34.854Z,96.00
2022-11-15T05:25:01.337Z,96.54
2022-11-15T05:27:27.881Z,96.39
2022-11-15T05:29:54.444Z,96.75
2022-11-15T05:32:21.708Z,97.24
2022-11-15T05:34:48.658Z,97.26
2022-11-15T05:37:15.711Z,96.45
2022-11-15T05:39:42.216Z,96.54
2022-11-15T05:42:14.705Z,96.99
2022-11-15T05:44:45.518Z,97.16
2022-11-15T05:47:16.260Z,96.88
2022-11-15T05:49:45.600Z,96.76
2022-11-15T05:52:17.484Z,96.67
2022-11-15T05:54:44.580Z,96.29
2022-11-15T05:57:11.307Z,96.53
2022-11-15T05:59:38.694Z,96.76
2022-11-15T06:02:05.294Z,95.71
2022-11-15T06:04:31.919Z,96.16
2022-11-15T06:06:59.917Z,96.27
2022-11-15T06:09:26.662Z,96.79
2022-11-15T06:11:53.172Z,96.40
2022-11-15T06:14:19.775Z,96.44
2022-11-15T06:16:46.328Z,97.04
2022-11-15T06:19:12.864Z,96.65
2022-11-15T06:21:39.482Z,96.78
2022-11-15T06:24:06.727Z,96.92
2022-11-15T06:26:33.274Z,96.99
2022-11-15T06:28:59.948Z,96.99
2022-11-15T06:31:26.436Z,96.97
2022-11-15T06:33:52.971Z,96.42
2022-11-15T06:36:19.680Z,97.06
2022-11-15T06:38:46.287Z,97.41
2022-11-15T06:41:14.373Z,97.56
2022-11-15T06:43:42.155Z,97.77
2022-11-15T06:46:09.453Z,97.64
2022-11-15T06:48:37.120Z,97.62
2022-11-15T06:51:05.379Z,97.08
2022-11-15T06:53:32.675Z,97.54
2022-11-15T06:56:03.905Z,97.55
2022-11-15T06:58:30.826Z,97.65
2022-11-15T07:01:02.713Z,97.29
2022-11-15T07:03:29.717Z,97.66
2022-11-15T07:06:02.792Z,97.42
2022-11-15T07:08:33.287Z,98.28
2022-11-15T07:11:02.846Z,97.48
2022-11-15T07:13:34.789Z,98.05
2022-11-15T07:16:06.815Z,97.61
2022-11-15T07:18:38.159Z,96.74
2022-11-15T07:21:06.639Z,97.46
2022-11-15T07:23:34.086Z,96.94
2022-11-15T07:26:00.984Z,96.90
2022-11-15T07:28:28.217Z,96.34
2022-11-15T07:30:55.366Z,96.36
2022-11-15T07:33:22.134Z,96.18
2022-11-15T07:35:51.973Z,96.03
2022-11-15T07:38:21.461Z,96.35
2022-11-15T07:40:48.503Z,95.44
2022-11-15T07:43:15.067Z,94.98
2022-11-15T07:45:46.266Z,94.97
2022-11-15T07:48:13.067Z,94.37
2022-11-15T07:50:43.520Z,93.63
2022-11-15T07:53:11.419Z,92.83
2022-11-15T07:55:40.800Z,92.87
2022-11-15T07:58:12.908Z,92.48
2022-11-15T08:00:39.556Z,92.68
2022-11-15T08:03:11.766Z,92.32
2022-11-15T08:05:40.308Z,91.57
2022-11-15T08:08:07.688Z,92.24
2022-11-15T08:10:39.367Z,91.87
2022-11-15T08:13:12.813Z,92.18
2022-11-15T08:15:39.793Z,92.20
2022-11-15T08:18:17.312Z,91.35
2022-11-15T08:20:44.520Z,91.37
2022-11-15T08:23:13.821Z,91.66
2022-11-15T08:25:40.949Z,91.78
2022-11-15T08:28:08.857Z,92.08
2022-11-15T08:30:37.839Z,92.19
2022-11-15T08:33:04.859Z,91.64
2022-11-15T08:35:31.478Z,91.37
2022-11-15T08:37:58.002Z,90.75
2022-11-15T08:40:24.938Z,90.68
2022-11-15T08:42:51.492Z,91.03
2022-11-15T08:45:18.014Z,90.19
2022-11-15T08:47:47.361Z,90.28
2022-11-15T08:50:17.133Z,89.57
2022-11-15T08:52:43.684Z,88.75
2022-11-15T08:55:10.252Z,87.64
2022-11-15T08:57:36.871Z,87.77
2022-11-15T09:00:04.767Z,88.24
2022-11-15T09:02:31.380Z,89.13
2022-11-15T09:04:57.930Z,89.27
2022-11-15T09:07:25.827Z,89.16
2022-11-15T09:09:52.484Z,87.05
2022-11-15T09:12:18.993Z,87.05
2022-11-15T09:14:45.555Z,87.68
2022-11-15T09:17:12.224Z,87.14
2022-11-15T09:19:38.856Z,85.79
2022-11-15T09:22:08.937Z,85.57
2022-11-15T09:24:36.126Z,86.86
2022-11-15T09:27:04.093Z,85.64
2022-11-15T09:29:30.707Z,84.48
2022-11-15T09:31:57.261Z,83.20
2022-11-15T09:34:23.781Z,83.08
2022-11-15T09:36:50.367Z,82.75
2022-11-15T09:39:17.089Z,81.41
2022-11-15T09:42:09.946Z,81.16
2022-11-15T09:44:41.908Z,80.25
2022-11-15T09:47:29.638Z,80.36
2022-11-15T09:49:59.716Z,81.16
2022-11-15T09:52:26.404Z,80.91
2022-11-15T09:54:55.546Z,81.96
2022-11-15T09:57:38.897Z,83.54
2022-11-15T10:00:47.401Z,80.96
2022-11-15T10:03:38.456Z,80.34
2022-11-15T10:06:07.014Z,79.91
2022-11-15T10:09:02.322Z,79.17
2022-11-15T10:11:37.791Z,81.05
2022-11-15T10:14:16.964Z,85.17
2022-11-15T10:16:59.220Z,86.45
2022-11-15T10:19:44.790Z,87.54
2022-11-15T10:22:27.138Z,88.40
2022-11-15T10:25:12.395Z,87.76
2022-11-15T10:27:40.369Z,87.84
2022-11-15T10:30:16.642Z,85.65
2022-11-15T10:32:45.457Z,85.59
2022-11-15T10:35:21.998Z,85.86
2022-11-15T10:37:48.550Z,84.66
2022-11-15T10:40:22.651Z,85.24
2022-11-15T10:43:04.675Z,84.88
2022-11-15T10:45:33.470Z,84.58
2022-11-15T10:48:15.062Z,86.44
2022-11-15T10:50:44.913Z,85.64
2022-11-15T10:53:31.872Z,85.20
2022-11-15T10:56:04.492Z,83.99
2022-11-15T10:58:38.555Z,83.43
2022-11-15T11:01:19.829Z,83.53
2022-11-15T11:04:06.348Z,83.86
2022-11-15T11:06:56.599Z,83.09
2022-11-15T11:09:34.388Z,80.70
2022-11-15T11:12:02.329Z,78.15
2022-11-15T11:14:37.814Z,78.58
2022-11-15T11:17:23.313Z,76.67
2022-11-15T11:19:58.035Z,79.37
2022-11-15T11:23:03.914Z,81.02
2022-11-15T11:26:04.250Z,79.33
2022-11-15T11:28:58.908Z,79.58
2022-11-15T11:31:50.160Z,78.54
2022-11-15T11:34:19.082Z,79.22
2022-11-15T11:36:45.583Z,77.63
2022-11-15T11:39:26.993Z,78.57
2022-11-15T11:42:01.172Z,79.32
2022-11-15T11:44:33.854Z,79.19
2022-11-15T11:47:19.645Z,79.32
2022-11-15T11:49:55.337Z,82.40
2022-11-15T11:52:28.084Z,82.93
2022-11-15T11:55:04.056Z,81.40
2022-11-15T11:57:40.978Z,78.64
2022-11-15T12:00:29.570Z,80.38
2022-11-15T12:03:06.504Z,80.72
2022-11-15T12:05:38.709Z,79.70
2022-11-15T12:08:23.604Z,79.78
2022-11-15T12:10:58.931Z,80.42
2022-11-15T12:13:27.753Z,84.00
2022-11-15T12:16:16.012Z,84.03
2022-11-15T12:18:48.550Z,85.22
2022-11-15T12:21:28.282Z,85.81
2022-11-15T12:24:02.293Z,85.65
2022-11-15T12:26:37.327Z,84.96
2022-11-15T12:29:20.185Z,84.49
2022-11-15T12:31:53.211Z,85.15
2022-11-15T12:34:23.018Z,84.97
2022-11-15T12:36:51.497Z,83.76
2022-11-15T12:39:19.278Z,84.53
2022-11-15T12:42:05.849Z,85.23
2022-11-15T12:44:32.444Z,84.72
2022-11-15T12:46:58.902Z,85.74
2022-11-15T12:49:45.388Z,85.66
2022-11-15T12:52:11.920Z,83.75
2022-11-15T12:54:41.406Z,85.67
2022-11-15T12:57:08.060Z,83.77
2022-11-15T12:59:56.134Z,86.19
2022-11-15T13:02:36.282Z,86.34
2022-11-15T13:05:23.861Z,86.90
2022-11-15T13:07:50.974Z,86.00
2022-11-15T13:10:17.435Z,85.38
2022-11-15T13:12:46.586Z,86.22
2022-11-15T13:15:13.286Z,85.11
2022-11-15T13:17:57.265Z,85.58
2022-11-15T13:20:28.677Z,82.59
2022-11-15T13:23:09.355Z,84.26
2022-11-15T13:25:41.994Z,83.07
2022-11-15T13:28:17.094Z,82.65
2022-11-15T13:30:56.197Z,83.46
2022-11-15T13:33:22.656Z,84.12
2022-11-15T13:35:52.874Z,83.07
2022-11-15T13:38:25.125Z,83.66
2022-11-15T13:40:52.376Z,83.48
2022-11-15T13:43:39.180Z,83.22
2022-11-15T13:46:25.591Z,82.72
2022-11-15T13:49:02.326Z,81.49
2022-11-15T13:51:51.649Z,81.42
2022-11-15T13:54:33.011Z,82.18
2022-11-15T13:57:05.357Z,84.16
2022-11-15T13:59:36.112Z,85.01
2022-11-15T14:02:23.556Z,85.43
2022-11-15T14:04:58.082Z,87.72
2022-11-15T14:07:27.512Z,87.01
2022-11-15T14:09:54.506Z,86.81
2022-11-15T14:12:35.882Z,87.97
2022-11-15T14:15:39.574Z,87.88
2022-11-15T14:18:07.432Z,88.17
2022-11-15T14:20:39.964Z,87.38
2022-11-15T14:23:28.727Z,87.74
2022-11-15T14:25:58.237Z,87.61
2022-11-15T14:28:24.667Z,87.37
2022-11-15T14:30:57.924Z,88.26
2022-11-15T14:33:34.677Z,87.61
2022-11-15T14:36:15.656Z,87.99
2022-11-15T14:38:43.990Z,88.40
2022-11-15T14:41:25.266Z,88.58
2022-11-15T14:43:53.740Z,89.08
2022-11-15T14:46:20.624Z,89.34
2022-11-15T14:48:47.385Z,89.65
2022-11-15T14:51:16.346Z,88.65
2022-11-15T14:53:43.699Z,88.29
2022-11-15T14:56:11.224Z,89.15
2022-11-15T14:58:38.058Z,88.04
2022-11-15T15:01:14.180Z,89.74
2022-11-15T15:03:40.884Z,89.37
2022-11-15T15:06:07.507Z,90.14
2022-11-15T15:08:34.517Z,90.38
2022-11-15T15:11:01.524Z,91.59
2022-11-15T15:13:29.741Z,92.11
2022-11-15T15:15:56.321Z,91.88
2022-11-15T15:18:22.857Z,91.54
2022-11-15T15:20:57.967Z,92.03
2022-11-15T15:23:26.538Z,92.91
2022-11-15T15:25:53.803Z,93.46
2022-11-15T15:28:20.346Z,93.72
2022-11-15T15:30:46.896Z,92.21
2022-11-15T15:33:13.457Z,91.46
2022-11-15T15:35:40.529Z,91.17
2022-11-15T15:38:07.058Z,90.84
2022-11-15T15:40:34.444Z,91.81
2022-11-15T15:43:01.367Z,93.37
2022-11-15T15:45:29.070Z,93.91
2022-11-15T15:47:56.166Z,94.65
2022-11-15T15:50:23.194Z,93.10
2022-11-15T15:52:54.332Z,92.16
2022-11-15T15:55:21.106Z,93.18
2022-11-15T15:57:48.258Z,94.04
2022-11-15T16:00:15.713Z,93.64
2022-11-15T16:02:43.096Z,94.05
2022-11-15T16:05:11.046Z,95.11
2022-11-15T16:07:38.536Z,94.08
2022-11-15T16:10:17.421Z,93.20
2022-11-15T16:12:44.659Z,93.86
2022-11-15T16:15:11.233Z,94.43
2022-11-15T16:17:47.901Z,94.15
2022-11-15T16:20:33.168Z,95.21
2022-11-15T16:23:04.373Z,96.14
2022-11-15T16:25:47.182Z,96.38
2022-11-15T16:28:31.124Z,97.53
2022-11-15T16:31:03.829Z,97.60
2022-11-15T16:33:30.902Z,96.14
2022-11-15T16:35:58.173Z,97.38
2022-11-15T16:38:24.904Z,97.76
2022-11-15T16:40:51.428Z,98.96
2022-11-15T16:43:18.385Z,98.52
2022-11-15T16:45:45.136Z,97.99
2022-11-15T16:48:22.583Z,97.88
2022-11-15T16:50:49.165Z,96.21
2022-11-15T16:53:15.693Z,96.12
2022-11-15T16:55:42.235Z,96.43
2022-11-15T16:58:10.204Z,96.67
2022-11-15T17:00:36.815Z,96.91
2022-11-15T17:03:03.897Z,96.56
2022-11-15T17:05:30.578Z,96.93
2022-11-15T17:07:57.532Z,96.04
2022-11-15T17:10:25.564Z,96.03
2022-11-15T17:12:52.967Z,96.13
2022-11-15T17:15:19.641Z,96.77
2022-11-15T17:17:54.648Z,96.22
2022-11-15T17:20:24.314Z,97.09
2022-11-15T17:22:52.695Z,97.13
2022-11-15T17:25:19.729Z,97.01
2022-11-15T17:27:46.512Z,95.72
2022-11-15T17:30:15.556Z,97.24
2022-11-15T17:32:43.101Z,97.05
2022-11-15T17:35:15.330Z,97.24
2022-11-15T17:37:42.730Z,96.71
2022-11-15T17:40:10.285Z,96.91
2022-11-15T17:42:36.821Z,97.00
2022-11-15T17:45:09.350Z,97.61
2022-11-15T17:47:36.925Z,98.37
2022-11-15T17:50:03.709Z,98.56
2022-11-15T17:52:30.204Z,99.25
2022-11-15T17:54:56.981Z,98.59
2022-11-15T17:57:23.508Z,97.88
2022-11-15T17:59:50.055Z,97.27
2022-11-15T18:02:16.634Z,96.64
2022-11-15T18:04:43.156Z,96.37
2022-11-15T18:07:11.759Z,98.15
2022-11-15T18:09:42.368Z,98.19
2022-11-15T18:12:09.346Z,97.58
2022-11-15T18:14:35.894Z,96.74
2022-11-15T18:17:02.442Z,96.19
2022-11-15T18:19:29.042Z,96.59
2022-11-15T18:22:00.244Z,96.39
2022-11-15T18:24:34.978Z,97.01
2022-11-15T18:27:03.132Z,96.02
2022-11-15T18:29:30.085Z,94.82
2022-11-15T18:31:57.141Z,96.26
2022-11-15T18:34:25.462Z,96.89
2022-11-15T18:36:52.952Z,96.03
2022-11-15T18:39:20.283Z,95.41
2022-11-15T18:41:47.358Z,95.35
2022-11-15T18:44:14.203Z,96.33
2022-11-15T18:46:42.408Z,96.93
2022-11-15T18:49:10.509Z,97.72
2022-11-15T18:51:41.979Z,97.52
2022-11-15T18:54:14.334Z,97.28
2022-11-15T18:56:44.221Z,95.83
2022-11-15T18:59:10.776Z,96.45
2022-11-15T19:01:40.329Z,96.27
2022-11-15T19:04:15.839Z,94.88
2022-11-15T19:06:44.487Z,94.83
2022-11-15T19:09:13.937Z,95.76
2022-11-15T19:11:42.000Z,95.19
2022-11-15T19:14:09.944Z,95.83
2022-11-15T19:16:39.016Z,94.86
2022-11-15T19:19:28.604Z,95.38
2022-11-15T19:21:57.097Z,96.14
2022-11-15T19:24:23.806Z,96.41
2022-11-15T19:26:50.450Z,96.44
2022-11-15T19:29:18.276Z,95.50
2022-11-15T19:31:45.419Z,96.31
2022-11-15T19:34:12.981Z,95.88
2022-11-15T19:36:44.479Z,96.70
2022-11-15T19:39:13.895Z,96.59
2022-11-15T19:41:42.792Z,97.18
2022-11-15T19:44:11.206Z,97.60
2022-11-15T19:46:38.781Z,98.20
2022-11-15T19:49:07.881Z,97.38
2022-11-15T19:51:34.526Z,96.18
2022-11-15T19:54:06.647Z,96.55
2022-11-15T19:56:34.646Z,96.23
2022-11-15T19:59:01.422Z,96.14
2022-11-15T20:01:33.724Z,96.05
2022-11-15T20:04:00.633Z,95.55
2022-11-15T20:06:29.906Z,95.33
2022-11-15T20:08:57.343Z,94.54
2022-11-15T20:11:24.469Z,95.58
2022-11-15T20:13:50.993Z,96.24
2022-11-15T20:16:20.709Z,97.20
2022-11-15T20:18:48.786Z,97.35
2022-11-15T20:21:16.062Z,97.02
2022-11-15T20:23:43.376Z,96.72
2022-11-15T20:26:11.491Z,96.83
2022-11-15T20:28:39.559Z,96.85
2022-11-15T20:31:07.224Z,97.75
2022-11-15T20:33:34.481Z,97.97
2022-11-15T20:36:10.135Z,98.02
2022-11-15T20:38:37.494Z,96.69
2022-11-15T20:41:04.633Z,96.65
2022-11-15T20:43:31.437Z,96.85
2022-11-15T20:45:58.361Z,97.34
2022-11-15T20:48:24.885Z,96.42
2022-11-15T20:50:51.571Z,96.86
2022-11-15T20:53:19.633Z,96.56
2022-11-15T20:55:49.042Z,96.25
2022-11-15T20:58:16.706Z,96.97
2022-11-15T21:00:44.903Z,96.06
2022-11-15T21:03:12.946Z,94.76
2022-11-15T21:05:41.426Z,95.24
2022-11-15T21:08:09.316Z,96.19
2022-11-15T21:10:54.579Z,95.82
2022-11-15T21:13:21.917Z,96.66
2022-11-15T21:15:48.527Z,96.52
2022-11-15T21:18:53.552Z,96.73
2022-11-15T21:22:19.052Z,96.17
2022-11-15T21:24:55.201Z,97.84
2022-11-15T21:27:21.851Z,97.98
2022-11-15T21:29:51.288Z,96.51
2022-11-15T21:32:17.868Z,97.38
2022-11-15T21:34:44.413Z,96.58
2022-11-15T21:37:11.081Z,96.12
2022-11-15T21:39:38.473Z,95.87
2022-11-15T21:42:05.143Z,96.57
2022-11-15T21:44:31.990Z,97.04
2022-11-15T21:46:58.510Z,97.81
2022-11-15T21:49:25.073Z,97.57
2022-11-15T21:51:51.614Z,97.70
2022-11-15T21:54:18.179Z,96.86
2022-11-15T21:56:44.773Z,96.14
2022-11-15T21:59:11.355Z,96.83
2022-11-15T22:01:56.784Z,97.82
2022-11-15T22:04:24.223Z,97.39
2022-11-15T22:06:51.387Z,96.18
2022-11-15T22:09:17.997Z,95.86
2022-11-15T22:11:45.345Z,95.07
2022-11-15T22:14:11.975Z,95.88
2022-11-15T22:16:39.256Z,96.06
2022-11-15T22:19:05.754Z,96.62
2022-11-15T22:21:32.420Z,97.58
2022-11-15T22:23:59.024Z,96.79
2022-11-15T22:26:25.514Z,96.96
2022-11-15T22:28:52.242Z,97.76
2022-11-15T22:31:19.088Z,98.00
2022-11-15T22:33:45.965Z,97.94
2022-11-15T22:36:13.029Z,98.12
2022-11-15T22:38:39.988Z,98.79
2022-11-15T22:41:06.562Z,99.28
2022-11-15T22:43:33.340Z,99.47
2022-11-15T22:46:01.090Z,98.84
2022-11-15T22:48:31.107Z,97.90
2022-11-15T22:50:58.260Z,98.28
2022-11-15T22:53:25.306Z,98.10
2022-11-15T22:56:00.352Z,97.98
2022-11-15T22:58:30.396Z,98.32
2022-11-15T23:00:59.665Z,98.53
2022-11-15T23:03:27.367Z,98.36
2022-11-15T23:05:54.172Z,98.11
2022-11-15T23:08:22.963Z,98.03
2022-11-15T23:11:08.084Z,98.48
2022-11-15T23:13:34.642Z,98.40
2022-11-15T23:16:22.692Z,98.88
2022-11-15T23:18:54.821Z,99.22
2022-11-15T23:21:48.988Z,99.17
2022-11-15T23:24:16.517Z,99.60
2022-11-15T23:26:44.521Z,99.84
2022-11-15T23:29:13.593Z,99.28
2022-11-15T23:32:01.906Z,99.47
2022-11-15T23:34:35.477Z,99.60
2022-11-15T23:37:02.132Z,98.14
2022-11-15T23:39:28.762Z,99.04
2022-11-15T23:41:55.795Z,98.12
2022-11-15T23:44:22.862Z,98.39
2022-11-15T23:46:49.388Z,97.08
2022-11-15T23:49:16.115Z,97.82
2022-11-15T23:51:42.691Z,98.58
2022-11-15T23:54:09.825Z,98.10
2022-11-15T23:56:36.864Z,97.23
2022-11-15T23:59:04.816Z,97.89
